Terminal Aerodrome Forecast
Issued by NWS

Home | Current Version | Previous Version | Text Only | Print | Product List | Glossary On
Versions: 1 2 3 4 5 6 7 8 9 10 11 12 13 14 15 16 17 18 19 20 21
150
FTUS43 KPAH 210746 AAA
TAFCGI
TAF AMD
KCGI 210746Z 2108/2206 01010G20KT P6SM SHRA BKN008
      TEMPO 2108/2112 3SM SHRA BR SCT008 OVC030
     FM211200 36016G27KT 6SM HZ OVC005
     FM212100 02013G22KT 4SM -SHRA OVC006
     FM220000 02012G20KT 3SM -SHRA OVC004=

USA.gov is the U.S. government's official web portal to all federal, state and local government web resources and services.